createdAt,value
2018-04-18T00:01:00.860Z,9.50
2018-04-18T00:03:28.698Z,9.50
2018-04-18T00:05:56.666Z,9.50
2018-04-18T00:08:24.481Z,9.50
2018-04-18T00:10:52.267Z,9.40
2018-04-18T00:13:20.865Z,9.40
2018-04-18T00:15:48.734Z,9.30
2018-04-18T00:18:16.538Z,9.30
2018-04-18T00:20:44.318Z,9.30
2018-04-18T00:23:12.111Z,9.30
2018-04-18T00:25:40.730Z,9.20
2018-04-18T00:28:08.573Z,9.20
2018-04-18T00:30:37.182Z,9.10
2018-04-18T00:33:04.927Z,9.00
2018-04-18T00:35:33.577Z,9.00
2018-04-18T00:38:01.337Z,9.00
2018-04-18T00:40:29.055Z,9.00
2018-04-18T00:42:56.941Z,9.00
2018-04-18T00:45:24.784Z,9.00
2018-04-18T00:47:52.702Z,8.80
2018-04-18T00:50:20.590Z,8.70
2018-04-18T00:52:49.168Z,8.70
2018-04-18T00:55:17.001Z,8.60
2018-04-18T00:57:44.896Z,8.60
2018-04-18T01:00:12.712Z,8.60
2018-04-18T01:02:40.724Z,8.50
2018-04-18T01:05:08.612Z,8.50
2018-04-18T01:07:36.561Z,8.50
2018-04-18T01:10:04.428Z,8.40
2018-04-18T01:12:32.326Z,8.40
2018-04-18T01:17:35.167Z,8.40
2018-04-18T01:20:03.039Z,8.40
2018-04-18T01:22:30.915Z,8.30
2018-04-18T01:24:58.786Z,8.30
2018-04-18T01:27:26.587Z,8.30
2018-04-18T01:29:55.232Z,8.20
2018-04-18T01:32:23.118Z,8.20
2018-04-18T01:34:50.970Z,8.20
2018-04-18T01:37:18.748Z,8.10
2018-04-18T01:39:46.611Z,8.10
2018-04-18T01:42:15.270Z,8.10
2018-04-18T01:44:43.024Z,8.10
2018-04-18T01:47:10.873Z,8.10
2018-04-18T01:49:39.673Z,8.10
2018-04-18T01:52:07.486Z,8.10
2018-04-18T01:54:36.066Z,8.00
2018-04-18T01:57:03.842Z,8.00
2018-04-18T01:59:31.666Z,7.90
2018-04-18T02:01:59.520Z,7.90
2018-04-18T02:04:27.326Z,7.90
2018-04-18T02:06:55.142Z,7.90
2018-04-18T02:09:23.001Z,7.90
2018-04-18T02:11:50.880Z,7.90
2018-04-18T02:14:18.745Z,7.90
2018-04-18T02:16:46.590Z,7.80
2018-04-18T02:19:15.194Z,7.80
2018-04-18T02:21:43.051Z,7.80
2018-04-18T02:24:11.037Z,7.80
2018-04-18T02:26:38.962Z,7.80
2018-04-18T02:29:06.793Z,7.70
2018-04-18T02:31:34.745Z,7.70
2018-04-18T02:34:02.591Z,7.70
2018-04-18T02:36:30.396Z,7.60
2018-04-18T02:38:58.273Z,7.60
2018-04-18T02:41:26.245Z,7.50
2018-04-18T02:43:54.155Z,7.40
2018-04-18T02:46:22.854Z,7.40
2018-04-18T02:48:50.703Z,7.40
2018-04-18T02:51:19.263Z,7.40
2018-04-18T02:53:47.263Z,7.40
2018-04-18T02:56:15.118Z,7.30
2018-04-18T02:58:43.875Z,7.20
2018-04-18T03:01:11.780Z,7.20
2018-04-18T03:03:40.515Z,7.20
2018-04-18T03:06:09.291Z,7.20
2018-04-18T03:08:37.199Z,7.20
2018-04-18T03:11:05.124Z,7.20
2018-04-18T03:13:33.007Z,7.20
2018-04-18T03:16:01.793Z,7.20
2018-04-18T03:18:29.746Z,7.20
2018-04-18T03:20:57.619Z,7.20
2018-04-18T03:23:25.595Z,7.20
2018-04-18T03:25:53.584Z,7.20
2018-04-18T03:28:21.482Z,7.10
2018-04-18T03:30:50.279Z,7.10
2018-04-18T03:33:18.894Z,7.00
2018-04-18T03:35:46.794Z,7.10
2018-04-18T03:38:14.758Z,7.00
2018-04-18T03:40:42.585Z,7.00
2018-04-18T03:43:10.470Z,6.90
2018-04-18T03:45:38.445Z,6.90
2018-04-18T03:48:06.363Z,6.90
2018-04-18T03:50:35.177Z,6.80
2018-04-18T03:53:03.074Z,6.80
2018-04-18T03:55:31.797Z,6.60
2018-04-18T03:58:00.488Z,6.60
2018-04-18T04:00:29.138Z,6.60
2018-04-18T04:02:57.061Z,6.60
2018-04-18T04:05:24.980Z,6.60
2018-04-18T04:07:52.878Z,6.60
2018-04-18T04:10:21.567Z,6.60
2018-04-18T04:12:50.179Z,6.60
2018-04-18T04:15:18.046Z,6.60
2018-04-18T04:17:57.815Z,6.50
2018-04-18T04:20:37.337Z,6.50
2018-04-18T04:23:17.055Z,6.40
2018-04-18T04:25:45.737Z,6.30
2018-04-18T04:28:14.328Z,6.30
2018-04-18T04:30:42.972Z,6.30
2018-04-18T04:33:11.192Z,6.30
2018-04-18T04:35:39.039Z,6.30
2018-04-18T04:38:07.708Z,6.30
2018-04-18T04:40:35.611Z,6.20
2018-04-18T04:43:04.269Z,6.30
2018-04-18T04:45:32.097Z,6.30
2018-04-18T04:48:00.036Z,6.30
2018-04-18T04:50:27.955Z,6.30
2018-04-18T04:52:55.797Z,6.40
2018-04-18T04:55:23.759Z,6.40
2018-04-18T04:57:51.721Z,6.40
2018-04-18T05:00:19.571Z,6.30
2018-04-18T05:02:47.574Z,6.30
2018-04-18T05:05:15.423Z,6.30
2018-04-18T05:07:43.293Z,6.30
2018-04-18T05:10:11.275Z,6.30
2018-04-18T05:12:39.129Z,6.30
2018-04-18T05:15:06.941Z,6.30
2018-04-18T05:17:34.857Z,6.30
2018-04-18T05:20:02.670Z,6.30
2018-04-18T05:22:30.606Z,6.30
2018-04-18T05:24:58.594Z,6.30
2018-04-18T05:27:26.538Z,6.30
2018-04-18T05:29:54.429Z,6.30
2018-04-18T05:32:22.431Z,6.30
2018-04-18T05:34:51.317Z,6.30
2018-04-18T05:37:19.272Z,6.30
2018-04-18T05:39:47.194Z,6.30
2018-04-18T05:42:15.106Z,6.30
2018-04-18T05:44:42.991Z,6.40
2018-04-18T05:47:10.905Z,6.40
2018-04-18T05:49:38.766Z,6.40
2018-04-18T05:52:06.600Z,6.40
2018-04-18T05:54:35.368Z,6.50
2018-04-18T05:57:03.285Z,6.60
2018-04-18T05:59:31.138Z,6.60
2018-04-18T06:01:59.798Z,6.70
2018-04-18T06:04:28.435Z,6.80
2018-04-18T06:06:56.433Z,6.80
2018-04-18T06:09:24.516Z,6.90
2018-04-18T06:11:52.369Z,7.00
2018-04-18T06:14:20.258Z,7.10
2018-04-18T06:16:48.228Z,7.30
2018-04-18T06:19:16.034Z,7.40
2018-04-18T06:21:43.941Z,7.50
2018-04-18T06:24:11.938Z,7.60
2018-04-18T06:26:40.598Z,7.90
2018-04-18T06:29:08.518Z,7.90
2018-04-18T06:31:36.428Z,8.10
2018-04-18T06:34:04.200Z,8.20
2018-04-18T06:36:31.974Z,8.40
2018-04-18T06:38:59.880Z,8.60
2018-04-18T06:41:27.780Z,8.70
2018-04-18T06:43:55.633Z,8.90
2018-04-18T06:46:23.549Z,9.10
2018-04-18T06:48:52.296Z,9.20
2018-04-18T06:51:20.129Z,9.40
2018-04-18T06:53:48.808Z,9.70
2018-04-18T06:56:17.353Z,9.90
2018-04-18T06:58:45.476Z,9.90
2018-04-18T07:01:13.322Z,10.10
2018-04-18T07:03:41.222Z,10.30
2018-04-18T07:06:09.083Z,10.50
2018-04-18T07:08:36.947Z,10.60
2018-04-18T07:11:04.875Z,10.80
2018-04-18T07:13:32.747Z,11.00
2018-04-18T07:16:00.690Z,11.20
2018-04-18T07:18:28.587Z,11.40
2018-04-18T07:20:56.522Z,11.60
2018-04-18T07:23:24.412Z,11.70
2018-04-18T07:25:52.437Z,11.80
2018-04-18T07:28:20.335Z,12.00
2018-04-18T07:30:48.291Z,12.10
2018-04-18T07:33:16.170Z,12.30
2018-04-18T07:35:44.050Z,12.50
2018-04-18T07:38:12.051Z,12.70
2018-04-18T07:40:40.652Z,13.00
2018-04-18T07:43:08.583Z,13.00
2018-04-18T07:45:36.496Z,13.10
2018-04-18T07:48:04.360Z,13.20
2018-04-18T07:50:32.267Z,13.50
2018-04-18T07:53:00.962Z,13.80
2018-04-18T07:55:29.183Z,13.80
2018-04-18T07:57:57.143Z,14.00
2018-04-18T08:00:25.797Z,14.40
2018-04-18T08:02:53.761Z,14.40
2018-04-18T08:05:21.664Z,14.70
2018-04-18T08:07:50.393Z,15.10
2018-04-18T08:10:18.343Z,15.10
2018-04-18T08:12:46.272Z,15.30
2018-04-18T08:15:14.281Z,15.50
2018-04-18T08:17:42.196Z,15.80
2018-04-18T08:20:10.068Z,16.00
2018-04-18T08:22:38.156Z,16.20
2018-04-18T08:25:06.131Z,16.30
2018-04-18T08:27:34.889Z,16.70
2018-04-18T08:30:02.936Z,16.60
2018-04-18T08:32:30.868Z,16.90
2018-04-18T08:34:58.795Z,17.20
2018-04-18T08:37:26.880Z,17.30
2018-04-18T08:39:54.853Z,17.50
2018-04-18T08:42:23.489Z,17.80
2018-04-18T08:44:51.327Z,17.80
2018-04-18T08:47:19.828Z,18.30
2018-04-18T08:49:47.760Z,18.20
2018-04-18T08:52:16.334Z,18.60
2018-04-18T08:54:44.273Z,18.60
2018-04-18T08:57:12.290Z,18.70
2018-04-18T08:59:41.012Z,19.10
2018-04-18T09:02:09.023Z,19.10
2018-04-18T09:04:36.948Z,19.20
2018-04-18T09:07:05.004Z,19.40
2018-04-18T09:09:32.936Z,19.60
2018-04-18T09:12:01.706Z,19.90
2018-04-18T09:14:29.725Z,19.90
2018-04-18T09:16:57.751Z,20.20
2018-04-18T09:19:25.720Z,20.50
2018-04-18T09:21:54.501Z,20.80
2018-04-18T09:24:22.408Z,20.80
2018-04-18T09:26:51.105Z,21.10
2018-04-18T09:29:19.871Z,21.10
2018-04-18T09:31:48.576Z,21.20
2018-04-18T09:34:16.505Z,21.20
2018-04-18T09:36:44.544Z,21.40
2018-04-18T09:39:12.390Z,21.60
2018-04-18T09:41:40.328Z,21.80
2018-04-18T09:44:08.280Z,22.00
2018-04-18T09:46:36.184Z,22.10
2018-04-18T09:49:04.859Z,22.30
2018-04-18T09:51:33.680Z,22.50
2018-04-18T09:54:01.634Z,22.40
2018-04-18T09:56:29.552Z,22.50
2018-04-18T09:58:57.556Z,22.70
2018-04-18T10:01:31.865Z,23.00
2018-04-18T10:04:05.320Z,23.00
2018-04-18T10:06:33.171Z,23.20
2018-04-18T10:09:00.910Z,23.20
2018-04-18T10:11:29.506Z,23.50
2018-04-18T10:13:57.458Z,23.50
2018-04-18T10:16:26.150Z,23.80
2018-04-18T10:18:54.996Z,24.00
2018-04-18T10:21:22.867Z,24.00
2018-04-18T10:23:50.759Z,24.10
2018-04-18T10:26:18.812Z,24.40
2018-04-18T10:28:46.731Z,24.30
2018-04-18T10:31:14.581Z,24.50
2018-04-18T10:33:43.337Z,24.80
2018-04-18T10:36:11.304Z,24.80
2018-04-18T10:38:40.738Z,25.10
2018-04-18T10:41:09.505Z,25.30
2018-04-18T10:43:37.477Z,25.30
2018-04-18T10:46:05.434Z,25.50
2018-04-18T10:48:33.501Z,25.60
2018-04-18T10:51:01.497Z,25.70
2018-04-18T10:53:30.156Z,25.80
2018-04-18T10:55:58.147Z,25.80
2018-04-18T10:58:26.945Z,25.90
2018-04-18T11:00:55.628Z,26.10
2018-04-18T11:03:24.424Z,26.40
2018-04-18T11:05:53.131Z,26.60
2018-04-18T11:08:20.985Z,26.60
2018-04-18T11:10:49.789Z,27.10
2018-04-18T11:13:17.798Z,27.10
2018-04-18T11:15:45.768Z,27.30
2018-04-18T11:18:13.825Z,27.60
2018-04-18T11:20:41.725Z,27.80
2018-04-18T11:23:09.645Z,27.90
2018-04-18T11:25:37.801Z,28.00
2018-04-18T11:28:05.697Z,28.00
2018-04-18T11:30:33.832Z,28.10
2018-04-18T11:33:02.578Z,28.50
2018-04-18T11:35:30.593Z,28.40
2018-04-18T11:37:59.310Z,28.60
2018-04-18T11:40:27.280Z,28.60
2018-04-18T11:42:55.294Z,28.70
2018-04-18T11:45:23.259Z,28.80
2018-04-18T11:47:51.247Z,28.90
2018-04-18T11:50:19.932Z,29.00
2018-04-18T11:52:48.577Z,29.10
2018-04-18T11:55:16.561Z,29.10
2018-04-18T11:57:44.560Z,29.40
2018-04-18T12:00:13.176Z,29.40
2018-04-18T12:02:41.156Z,29.40
2018-04-18T12:05:09.061Z,29.50
2018-04-18T12:07:37.030Z,29.60
2018-04-18T12:10:05.018Z,29.60
2018-04-18T12:12:33.702Z,29.70
2018-04-18T12:15:02.378Z,29.60
2018-04-18T12:17:30.305Z,29.60
2018-04-18T12:19:58.286Z,29.60
2018-04-18T12:22:26.320Z,29.60
2018-04-18T12:24:54.276Z,29.50
2018-04-18T12:27:22.890Z,29.30
2018-04-18T12:29:51.110Z,29.30
2018-04-18T12:32:19.093Z,29.30
2018-04-18T12:34:47.899Z,29.10
2018-04-18T12:37:15.863Z,29.00
2018-04-18T12:39:44.563Z,28.80
2018-04-18T12:42:12.585Z,28.80
2018-04-18T12:44:40.476Z,28.70
2018-04-18T12:47:08.545Z,28.60
2018-04-18T12:49:36.487Z,28.60
2018-04-18T12:52:04.830Z,28.50
2018-04-18T12:54:33.567Z,28.70
2018-04-18T12:57:01.451Z,28.60
2018-04-18T12:59:30.175Z,28.60
2018-04-18T13:01:58.138Z,28.60
2018-04-18T13:04:26.202Z,28.60
2018-04-18T13:06:54.517Z,28.70
2018-04-18T13:09:22.572Z,28.60
2018-04-18T13:11:50.585Z,28.80
2018-04-18T13:14:18.556Z,28.90
2018-04-18T13:16:46.537Z,29.00
2018-04-18T13:19:15.166Z,29.00
2018-04-18T13:21:43.173Z,29.00
2018-04-18T13:24:11.192Z,29.10
2018-04-18T13:26:39.198Z,29.10
2018-04-18T13:29:07.171Z,29.10
2018-04-18T13:31:35.249Z,29.10
2018-04-18T13:34:03.169Z,29.00
2018-04-18T13:36:31.111Z,29.00
2018-04-18T13:38:59.900Z,28.90
2018-04-18T13:41:27.820Z,28.80
2018-04-18T13:43:55.732Z,28.90
2018-04-18T13:46:24.584Z,28.90
2018-04-18T13:48:52.483Z,28.80
2018-04-18T13:51:21.325Z,28.80
2018-04-18T13:53:49.331Z,28.80
2018-04-18T13:56:17.269Z,28.90
2018-04-18T13:58:45.419Z,28.90
2018-04-18T14:01:13.342Z,28.90
2018-04-18T14:03:41.225Z,28.90
2018-04-18T14:06:09.149Z,28.90
2018-04-18T14:08:37.087Z,28.90
2018-04-18T14:11:04.999Z,29.00
2018-04-18T14:13:32.849Z,28.90
2018-04-18T14:16:00.763Z,28.80
2018-04-18T14:18:28.777Z,28.80
2018-04-18T14:20:56.755Z,28.70
2018-04-18T14:23:24.797Z,28.60
2018-04-18T14:25:52.701Z,28.50
2018-04-18T14:28:20.587Z,28.40
2018-04-18T14:30:48.738Z,28.40
2018-04-18T14:33:16.623Z,28.30
2018-04-18T14:35:44.559Z,28.20
2018-04-18T14:38:12.682Z,28.10
2018-04-18T14:40:40.525Z,28.10
2018-04-18T14:43:09.307Z,28.00
2018-04-18T14:45:37.361Z,28.00
2018-04-18T14:48:05.228Z,28.00
2018-04-18T14:50:33.273Z,27.90
2018-04-18T14:53:01.213Z,27.80
2018-04-18T14:55:29.102Z,27.80
2018-04-18T14:57:57.099Z,27.70
2018-04-18T15:00:25.054Z,27.60
2018-04-18T15:02:53.041Z,27.50
2018-04-18T15:05:21.096Z,27.40
2018-04-18T15:07:49.076Z,27.40
2018-04-18T15:10:17.001Z,27.40
2018-04-18T15:12:45.663Z,27.30
2018-04-18T15:15:13.666Z,27.30
2018-04-18T15:17:41.630Z,27.30
2018-04-18T15:20:09.605Z,27.20
2018-04-18T15:22:38.424Z,27.30
2018-04-18T15:25:06.302Z,27.30
2018-04-18T15:27:34.302Z,27.30
2018-04-18T15:30:02.264Z,27.30
2018-04-18T15:32:30.149Z,27.20
2018-04-18T15:34:58.106Z,27.10
2018-04-18T15:37:26.101Z,27.00
2018-04-18T15:39:54.097Z,27.00
2018-04-18T15:42:22.064Z,27.00
2018-04-18T15:44:50.077Z,27.00
2018-04-18T15:47:17.982Z,27.00
2018-04-18T15:49:46.695Z,26.50
2018-04-18T15:52:14.650Z,26.50
2018-04-18T15:54:43.345Z,26.10
2018-04-18T15:57:11.364Z,26.10
2018-04-18T15:59:39.357Z,26.10
2018-04-18T16:02:07.351Z,26.00
2018-04-18T16:04:36.069Z,25.90
2018-04-18T16:07:04.767Z,25.80
2018-04-18T16:09:32.718Z,25.80
2018-04-18T16:12:00.584Z,25.90
2018-04-18T16:14:28.717Z,25.90
2018-04-18T16:16:57.517Z,25.90
2018-04-18T16:19:26.373Z,25.80
2018-04-18T16:21:54.331Z,25.80
2018-04-18T16:24:22.318Z,25.80
2018-04-18T16:26:50.276Z,25.70
2018-04-18T16:29:30.136Z,25.80
2018-04-18T16:31:58.085Z,25.80
2018-04-18T16:34:26.111Z,25.60
2018-04-18T16:36:54.100Z,25.50
2018-04-18T16:39:22.110Z,25.40
2018-04-18T16:41:50.258Z,25.40
2018-04-18T16:44:18.278Z,25.30
2018-04-18T16:46:47.004Z,25.20
2018-04-18T16:49:14.941Z,25.10
2018-04-18T16:51:43.806Z,24.90
2018-04-18T16:54:11.726Z,24.80
2018-04-18T16:56:39.584Z,24.80
2018-04-18T16:59:07.686Z,24.70
2018-04-18T17:01:35.667Z,24.50
2018-04-18T17:04:03.597Z,24.40
2018-04-18T17:06:31.595Z,24.40
2018-04-18T17:08:59.501Z,24.30
2018-04-18T17:11:28.239Z,24.20
2018-04-18T17:13:56.187Z,24.10
2018-04-18T17:16:24.202Z,24.10
2018-04-18T17:18:52.222Z,24.00
2018-04-18T17:21:20.235Z,23.90
2018-04-18T17:23:48.136Z,23.80
2018-04-18T17:26:16.156Z,23.70
2018-04-18T17:28:44.171Z,23.60
2018-04-18T17:31:12.169Z,23.50
2018-04-18T17:33:40.906Z,23.10
2018-04-18T17:36:08.946Z,23.10
2018-04-18T17:38:37.012Z,22.90
2018-04-18T17:41:05.013Z,22.70
2018-04-18T17:43:32.956Z,22.50
2018-04-18T17:46:00.901Z,22.40
2018-04-18T17:48:29.654Z,22.00
2018-04-18T17:50:57.662Z,22.00
2018-04-18T17:53:26.409Z,21.70
2018-04-18T17:55:54.297Z,21.70
2018-04-18T17:58:22.365Z,21.60
2018-04-18T18:00:50.387Z,21.50
2018-04-18T18:03:18.394Z,21.30
2018-04-18T18:05:46.343Z,21.10
2018-04-18T18:08:14.326Z,20.90
2018-04-18T18:10:42.284Z,20.70
2018-04-18T18:13:10.304Z,20.50
2018-04-18T18:15:39.033Z,20.10
2018-04-18T18:18:07.038Z,20.10
2018-04-18T18:20:35.107Z,20.00
2018-04-18T18:23:03.064Z,19.80
2018-04-18T18:25:30.974Z,19.70
2018-04-18T18:27:59.725Z,19.50
2018-04-18T18:30:27.662Z,19.50
2018-04-18T18:32:55.668Z,19.40
2018-04-18T18:35:23.828Z,19.30
2018-04-18T18:37:51.757Z,19.20
2018-04-18T18:40:19.656Z,19.10
2018-04-18T18:42:47.753Z,19.00
2018-04-18T18:45:15.731Z,18.90
2018-04-18T18:47:44.604Z,18.90
2018-04-18T18:50:12.669Z,18.90
2018-04-18T18:52:40.582Z,18.80
2018-04-18T18:55:09.281Z,18.80
2018-04-18T18:57:37.801Z,18.70
2018-04-18T19:00:05.860Z,18.70
2018-04-18T19:02:33.805Z,18.60
2018-04-18T19:05:01.860Z,18.60
2018-04-18T19:07:30.554Z,18.40
2018-04-18T19:09:58.496Z,18.40
2018-04-18T19:12:26.578Z,18.30
2018-04-18T19:14:55.466Z,18.10
2018-04-18T19:17:24.172Z,18.10
2018-04-18T19:19:52.247Z,18.10
2018-04-18T19:22:20.275Z,18.00
2018-04-18T19:24:48.608Z,17.90
2018-04-18T19:27:16.574Z,17.80
2018-04-18T19:29:44.572Z,17.70
2018-04-18T19:32:13.418Z,17.50
2018-04-18T19:34:42.235Z,17.40
2018-04-18T19:37:10.238Z,17.40
2018-04-18T19:39:38.251Z,17.30
2018-04-18T19:42:07.012Z,17.10
2018-04-18T19:44:34.885Z,17.10
2018-04-18T19:47:02.807Z,17.10
2018-04-18T19:49:30.804Z,17.10
2018-04-18T19:52:00.425Z,17.00
2018-04-18T19:54:28.408Z,16.90
2018-04-18T19:56:57.108Z,16.80
2018-04-18T19:59:25.001Z,16.80
2018-04-18T20:01:52.928Z,16.70
2018-04-18T20:04:21.673Z,16.50
2018-04-18T20:06:49.661Z,16.50
2018-04-18T20:09:17.619Z,16.50
2018-04-18T20:11:45.609Z,16.50
2018-04-18T20:14:13.576Z,16.40
2018-04-18T20:16:41.530Z,16.40
2018-04-18T20:19:09.589Z,16.30
2018-04-18T20:21:37.592Z,16.30
2018-04-18T20:24:05.532Z,16.10
2018-04-18T20:26:33.647Z,16.10
2018-04-18T20:29:01.553Z,16.00
2018-04-18T20:31:29.535Z,15.80
2018-04-18T20:33:57.592Z,15.80
2018-04-18T20:36:25.584Z,15.70
2018-04-18T20:38:53.559Z,15.50
2018-04-18T20:41:21.554Z,15.40
2018-04-18T20:43:49.528Z,15.30
2018-04-18T20:46:18.200Z,15.30
2018-04-18T20:48:46.185Z,15.20
2018-04-18T20:51:14.862Z,15.10
2018-04-18T20:53:42.752Z,15.00
2018-04-18T20:56:10.694Z,14.90
2018-04-18T20:58:38.634Z,14.80
2018-04-18T21:01:06.567Z,14.60
2018-04-18T21:03:34.574Z,14.40
2018-04-18T21:06:02.457Z,14.40
2018-04-18T21:08:30.474Z,14.40
2018-04-18T21:10:58.477Z,14.30
2018-04-18T21:13:26.497Z,14.30
2018-04-18T21:15:55.261Z,14.10
2018-04-18T21:18:23.308Z,14.10
2018-04-18T21:20:51.192Z,14.00
2018-04-18T21:23:19.132Z,13.80
2018-04-18T21:25:47.135Z,13.80
2018-04-18T21:28:15.054Z,13.70
2018-04-18T21:30:43.200Z,13.70
2018-04-18T21:33:11.959Z,13.60
2018-04-18T21:35:39.894Z,13.50
2018-04-18T21:38:07.823Z,13.50
2018-04-18T21:40:36.511Z,13.30
2018-04-18T21:43:05.369Z,13.30
2018-04-18T21:45:33.380Z,13.20
2018-04-18T21:48:02.197Z,13.20
2018-04-18T21:50:30.201Z,13.20
2018-04-18T21:52:58.184Z,13.20
2018-04-18T21:55:26.204Z,13.10
2018-04-18T21:57:54.137Z,13.00
2018-04-18T22:00:22.848Z,13.00
2018-04-18T22:02:50.921Z,13.00
2018-04-18T22:05:19.631Z,12.90
2018-04-18T22:07:47.535Z,12.90
2018-04-18T22:10:15.625Z,12.80
2018-04-18T22:12:43.503Z,12.80
2018-04-18T22:15:12.209Z,12.70
2018-04-18T22:17:40.232Z,12.70
2018-04-18T22:20:08.136Z,12.70
2018-04-18T22:22:36.144Z,12.70
2018-04-18T22:25:04.122Z,12.50
2018-04-18T22:27:32.031Z,12.50
2018-04-18T22:30:00.666Z,12.30
2018-04-18T22:32:28.636Z,12.40
2018-04-18T22:34:56.529Z,12.40
2018-04-18T22:37:24.450Z,12.30
2018-04-18T22:39:52.474Z,12.30
2018-04-18T22:42:20.349Z,12.30
2018-04-18T22:44:49.010Z,12.00
2018-04-18T22:47:17.021Z,12.00
2018-04-18T22:49:45.066Z,12.00
2018-04-18T22:52:13.066Z,12.00
2018-04-18T22:54:41.118Z,12.00
2018-04-18T22:57:09.952Z,11.90
2018-04-18T22:59:37.881Z,11.90
2018-04-18T23:02:06.600Z,11.80
2018-04-18T23:04:34.436Z,11.80
2018-04-18T23:07:02.403Z,11.90
2018-04-18T23:09:31.118Z,11.70
2018-04-18T23:11:59.107Z,11.70
2018-04-18T23:14:27.180Z,11.70
2018-04-18T23:16:55.166Z,11.60
2018-04-18T23:19:23.191Z,11.50
2018-04-18T23:21:51.062Z,11.50
2018-04-18T23:24:19.187Z,11.40
2018-04-18T23:26:47.117Z,11.30
2018-04-18T23:29:15.027Z,11.30
2018-04-18T23:31:42.993Z,11.30
2018-04-18T23:34:10.936Z,11.30
2018-04-18T23:36:38.821Z,11.30
2018-04-18T23:39:06.817Z,11.20
2018-04-18T23:41:35.584Z,11.20
2018-04-18T23:44:03.471Z,11.20
2018-04-18T23:46:32.435Z,11.10
2018-04-18T23:49:00.350Z,11.10
2018-04-18T23:51:28.247Z,11.10
2018-04-18T23:53:56.209Z,11.00
2018-04-18T23:56:24.227Z,11.00
2018-04-18T23:58:52.354Z,10.90
